createdAt,value
2018-02-16T00:00:57.749Z,42.77
2018-02-16T00:03:26.010Z,50.10
2018-02-16T00:05:54.420Z,48.23
2018-02-16T00:08:22.719Z,50.30
2018-02-16T00:10:51.765Z,43.20
2018-02-16T00:13:19.982Z,40.57
2018-02-16T00:15:49.030Z,43.70
2018-02-16T00:18:17.302Z,47.10
2018-02-16T00:20:45.493Z,43.10
2018-02-16T00:23:13.780Z,46.83
2018-02-16T00:25:42.013Z,43.27
2018-02-16T00:28:10.243Z,45.00
2018-02-16T00:30:38.497Z,44.20
2018-02-16T00:33:07.158Z,42.33
2018-02-16T00:35:35.677Z,41.03
2018-02-16T00:38:05.320Z,49.00
2018-02-16T00:40:34.108Z,48.00
2018-02-16T00:43:04.826Z,41.80
2018-02-16T00:45:33.727Z,44.67
2018-02-16T00:48:02.718Z,40.23
2018-02-16T00:50:31.003Z,37.70
2018-02-16T00:52:59.241Z,39.97
2018-02-16T00:55:27.432Z,40.17
2018-02-16T00:57:56.400Z,44.20
2018-02-16T01:00:24.658Z,38.47
2018-02-16T01:02:52.909Z,42.07
2018-02-16T01:05:21.186Z,41.77
2018-02-16T01:07:49.372Z,40.40
2018-02-16T01:10:17.620Z,41.23
2018-02-16T01:12:46.608Z,46.67
2018-02-16T01:15:15.660Z,42.07
2018-02-16T01:17:43.865Z,45.97
2018-02-16T01:20:12.828Z,40.90
2018-02-16T01:22:41.056Z,48.60
2018-02-16T01:25:09.263Z,41.90
2018-02-16T01:27:37.468Z,46.83
2018-02-16T01:30:07.381Z,45.33
2018-02-16T01:32:35.572Z,43.07
2018-02-16T01:35:04.567Z,41.47
2018-02-16T01:37:32.837Z,45.63
2018-02-16T01:40:01.056Z,42.20
2018-02-16T01:42:29.359Z,49.33
2018-02-16T01:44:57.661Z,48.70
2018-02-16T01:47:25.883Z,44.87
2018-02-16T01:50:04.035Z,50.40
2018-02-16T01:52:32.237Z,53.93
2018-02-16T01:55:01.326Z,57.57
2018-02-16T01:57:30.455Z,59.30
2018-02-16T01:59:58.640Z,45.77
2018-02-16T02:02:26.968Z,47.70
2018-02-16T02:04:56.024Z,56.60
2018-02-16T02:07:24.224Z,54.67
2018-02-16T02:09:52.420Z,53.77
2018-02-16T02:12:21.515Z,57.70
2018-02-16T02:14:49.696Z,54.60
2018-02-16T02:17:18.751Z,47.80
2018-02-16T02:19:46.930Z,52.20
2018-02-16T02:22:15.141Z,47.67
2018-02-16T02:24:44.204Z,44.57
2018-02-16T02:27:12.489Z,45.10
2018-02-16T02:29:40.720Z,47.30
2018-02-16T02:32:08.956Z,53.33
2018-02-16T02:34:37.196Z,49.90
2018-02-16T02:37:05.408Z,48.40
2018-02-16T02:39:34.377Z,46.40
2018-02-16T02:42:02.609Z,46.30
2018-02-16T02:44:30.825Z,47.10
2018-02-16T02:49:33.670Z,46.00
2018-02-16T02:52:01.881Z,47.47
2018-02-16T02:54:30.064Z,42.80
2018-02-16T02:56:58.622Z,46.23
2018-02-16T02:59:26.824Z,47.17
2018-02-16T03:01:55.101Z,40.10
2018-02-16T03:04:23.325Z,41.90
2018-02-16T03:06:51.642Z,44.80
2018-02-16T03:09:19.824Z,43.70
2018-02-16T03:11:48.092Z,45.50
2018-02-16T03:14:16.324Z,43.53
2018-02-16T03:16:44.525Z,46.00
2018-02-16T03:19:12.748Z,48.43
2018-02-16T03:21:40.956Z,44.03
2018-02-16T03:24:09.180Z,42.77
2018-02-16T03:26:38.160Z,40.30
2018-02-16T03:29:06.424Z,44.90
2018-02-16T03:31:34.617Z,42.93
2018-02-16T03:34:02.908Z,41.93
2018-02-16T03:36:31.146Z,39.67
2018-02-16T03:38:59.384Z,43.27
2018-02-16T03:41:28.381Z,43.83
2018-02-16T03:43:57.340Z,43.90
2018-02-16T03:46:25.732Z,38.20
2018-02-16T03:48:54.046Z,42.40
2018-02-16T03:51:23.035Z,40.90
2018-02-16T03:53:51.240Z,41.83
2018-02-16T03:59:00.131Z,43.17
2018-02-16T04:01:29.101Z,40.77
2018-02-16T04:03:57.304Z,41.13
2018-02-16T04:06:26.300Z,43.23
2018-02-16T04:08:55.315Z,40.70
2018-02-16T04:11:23.505Z,43.70
2018-02-16T04:13:51.730Z,40.23
2018-02-16T04:16:20.036Z,39.70
2018-02-16T04:18:48.231Z,40.83
2018-02-16T04:21:16.473Z,41.30
2018-02-16T04:23:45.435Z,41.00
2018-02-16T04:26:13.733Z,41.80
2018-02-16T04:28:42.846Z,37.73
2018-02-16T04:31:11.132Z,46.87
2018-02-16T04:33:39.380Z,40.40
2018-02-16T04:36:09.712Z,39.57
2018-02-16T04:38:37.974Z,45.43
2018-02-16T04:41:06.367Z,45.30
2018-02-16T04:43:35.582Z,46.37
2018-02-16T04:46:03.803Z,39.63
2018-02-16T04:48:32.087Z,45.87
2018-02-16T04:51:00.404Z,41.90
2018-02-16T04:53:28.599Z,40.40
2018-02-16T04:55:56.805Z,45.13
2018-02-16T04:58:25.136Z,43.57
2018-02-16T05:00:53.398Z,42.30
2018-02-16T05:03:22.379Z,40.10
2018-02-16T05:05:51.480Z,40.67
2018-02-16T05:08:20.518Z,45.00
2018-02-16T05:10:48.725Z,39.13
2018-02-16T05:13:16.943Z,44.17
2018-02-16T05:15:45.212Z,45.73
2018-02-16T05:18:13.436Z,38.77
2018-02-16T05:20:41.667Z,40.83
2018-02-16T05:23:09.860Z,44.63
2018-02-16T05:25:38.057Z,45.03
2018-02-16T05:28:06.345Z,43.93
2018-02-16T05:30:34.587Z,44.07
2018-02-16T05:33:02.924Z,42.10
2018-02-16T05:35:32.036Z,41.60
2018-02-16T05:38:03.443Z,48.00
2018-02-16T05:40:31.778Z,42.40
2018-02-16T05:42:59.980Z,44.27
2018-02-16T05:45:28.340Z,51.20
2018-02-16T05:47:56.532Z,47.07
2018-02-16T05:50:24.842Z,50.53
2018-02-16T05:52:53.064Z,48.53
2018-02-16T05:55:21.309Z,44.37
2018-02-16T05:57:50.302Z,40.63
2018-02-16T06:00:18.520Z,50.83
2018-02-16T06:02:46.755Z,44.30
2018-02-16T06:05:15.052Z,49.07
2018-02-16T06:07:43.320Z,47.17
2018-02-16T06:10:11.790Z,53.50
2018-02-16T06:12:42.005Z,45.17
2018-02-16T06:15:11.053Z,45.77
2018-02-16T06:17:39.472Z,49.47
2018-02-16T06:20:08.465Z,49.33
2018-02-16T06:22:36.792Z,52.70
2018-02-16T06:25:05.010Z,59.10
2018-02-16T06:27:33.274Z,53.63
2018-02-16T06:30:01.463Z,52.63
2018-02-16T06:32:29.659Z,54.13
2018-02-16T06:34:58.797Z,56.33
2018-02-16T06:37:27.417Z,51.40
2018-02-16T06:39:55.648Z,46.67
2018-02-16T06:42:23.995Z,60.67
2018-02-16T06:44:53.013Z,50.27
2018-02-16T06:47:21.251Z,57.90
2018-02-16T06:49:50.337Z,57.30
2018-02-16T06:52:18.582Z,56.10
2018-02-16T06:54:46.834Z,59.70
2018-02-16T06:57:15.179Z,53.50
2018-02-16T06:59:43.470Z,51.23
2018-02-16T07:02:12.432Z,53.53
2018-02-16T07:04:40.654Z,58.43
2018-02-16T07:07:09.023Z,58.83
2018-02-16T07:09:37.687Z,55.80
2018-02-16T07:12:05.982Z,57.93
2018-02-16T07:14:34.964Z,52.47
2018-02-16T07:17:03.984Z,56.23
2018-02-16T07:19:32.325Z,59.93
2018-02-16T07:22:01.329Z,57.27
2018-02-16T07:24:29.635Z,54.73
2018-02-16T07:26:57.968Z,55.57
2018-02-16T07:29:26.261Z,52.57
2018-02-16T07:31:55.229Z,63.57
2018-02-16T07:34:23.470Z,49.70
2018-02-16T07:36:51.660Z,48.23
2018-02-16T07:39:19.880Z,53.23
2018-02-16T07:41:48.896Z,52.50
2018-02-16T07:44:17.948Z,47.03
2018-02-16T07:46:46.152Z,63.43
2018-02-16T07:49:15.304Z,50.20
2018-02-16T07:51:43.589Z,47.33
2018-02-16T07:54:11.794Z,57.83
2018-02-16T07:56:40.106Z,51.73
2018-02-16T07:59:08.354Z,54.33
2018-02-16T08:01:36.637Z,59.03
2018-02-16T08:04:06.060Z,50.93
2018-02-16T08:06:34.260Z,49.83
2018-02-16T08:09:02.468Z,47.63
2018-02-16T08:11:30.712Z,49.77
2018-02-16T08:13:58.924Z,48.50
2018-02-16T08:16:27.243Z,59.37
2018-02-16T08:18:55.454Z,51.03
2018-02-16T08:21:23.660Z,51.60
2018-02-16T08:23:51.915Z,46.87
2018-02-16T08:26:20.299Z,53.00
2018-02-16T08:28:48.493Z,58.27
2018-02-16T08:31:16.761Z,59.83
2018-02-16T08:33:44.984Z,52.00
2018-02-16T08:36:13.215Z,54.80
2018-02-16T08:38:41.507Z,59.63
2018-02-16T08:41:09.805Z,53.63
2018-02-16T08:43:39.337Z,54.27
2018-02-16T08:46:07.623Z,52.07
2018-02-16T08:48:35.878Z,47.93
2018-02-16T08:51:04.070Z,40.80
2018-02-16T08:53:32.850Z,52.43
2018-02-16T08:56:01.124Z,44.07
2018-02-16T08:58:29.316Z,50.80
2018-02-16T09:00:57.584Z,43.43
2018-02-16T09:03:25.909Z,49.57
2018-02-16T09:05:54.880Z,46.33
2018-02-16T09:08:23.076Z,51.10
2018-02-16T09:10:52.150Z,51.30
2018-02-16T09:13:20.347Z,41.43
2018-02-16T09:15:49.370Z,43.13
2018-02-16T09:18:17.619Z,42.60
2018-02-16T09:20:46.598Z,41.87
2018-02-16T09:23:14.801Z,43.17
2018-02-16T09:25:43.006Z,40.17
2018-02-16T09:28:11.233Z,39.87
2018-02-16T09:30:39.456Z,38.83
2018-02-16T09:33:07.680Z,43.37
2018-02-16T09:35:39.485Z,37.90
2018-02-16T09:38:07.994Z,24.43
2018-02-16T09:40:36.268Z,23.90
2018-02-16T09:43:04.487Z,22.60
2018-02-16T09:45:35.866Z,23.17
2018-02-16T09:48:04.084Z,20.53
2018-02-16T09:50:32.315Z,21.87
2018-02-16T09:53:00.640Z,25.03
2018-02-16T09:55:28.896Z,22.37
2018-02-16T09:57:57.060Z,21.93
2018-02-16T10:00:25.292Z,23.00
2018-02-16T10:02:53.489Z,21.43
2018-02-16T10:05:21.716Z,25.87
2018-02-16T10:07:50.013Z,29.10
2018-02-16T10:10:18.262Z,25.93
2018-02-16T10:12:46.635Z,28.17
2018-02-16T10:15:14.917Z,22.70
2018-02-16T10:17:43.133Z,24.40
2018-02-16T10:20:11.364Z,26.30
2018-02-16T10:22:39.646Z,31.00
2018-02-16T10:25:07.820Z,28.27
2018-02-16T10:27:36.019Z,29.23
2018-02-16T10:30:05.132Z,32.60
2018-02-16T10:32:33.301Z,30.27
2018-02-16T10:35:01.488Z,27.37
2018-02-16T10:37:29.820Z,26.07
2018-02-16T10:39:58.094Z,30.80
2018-02-16T10:42:26.307Z,29.33
2018-02-16T10:44:54.713Z,28.43
2018-02-16T10:47:23.029Z,26.47
2018-02-16T10:49:51.215Z,29.47
2018-02-16T10:52:19.556Z,25.60
2018-02-16T10:54:47.752Z,30.27
2018-02-16T10:57:15.945Z,26.37
2018-02-16T10:59:44.965Z,29.53
2018-02-16T11:02:18.973Z,27.80
2018-02-16T11:04:52.752Z,21.13
2018-02-16T11:07:27.276Z,20.17
2018-02-16T11:09:56.268Z,20.77
2018-02-16T11:12:25.241Z,19.63
2018-02-16T11:14:53.459Z,17.77
2018-02-16T11:17:22.203Z,21.77
2018-02-16T11:19:51.197Z,20.47
2018-02-16T11:22:19.480Z,19.10
2018-02-16T11:24:47.728Z,19.50
2018-02-16T11:27:15.939Z,20.90
2018-02-16T11:29:44.148Z,20.33
2018-02-16T11:32:12.408Z,20.90
2018-02-16T11:34:40.728Z,21.07
2018-02-16T11:37:08.972Z,21.37
2018-02-16T11:39:37.212Z,19.70
2018-02-16T11:42:06.197Z,19.77
2018-02-16T11:44:34.509Z,21.50
2018-02-16T11:47:03.487Z,20.97
2018-02-16T11:49:32.444Z,21.93
2018-02-16T11:52:00.665Z,19.60
2018-02-16T11:54:28.936Z,22.80
2018-02-16T11:56:57.936Z,21.10
2018-02-16T11:59:26.145Z,21.07
2018-02-16T12:01:55.035Z,20.27
2018-02-16T12:04:23.341Z,19.53
2018-02-16T12:06:51.587Z,22.47
2018-02-16T12:09:19.900Z,21.83
2018-02-16T12:11:48.100Z,21.23
2018-02-16T12:14:17.072Z,20.47
2018-02-16T12:16:45.308Z,22.33
2018-02-16T12:19:13.580Z,21.10
2018-02-16T12:21:41.812Z,20.43
2018-02-16T12:24:10.913Z,20.27
2018-02-16T12:26:39.151Z,20.37
2018-02-16T12:29:07.412Z,22.97
2018-02-16T12:31:36.411Z,21.80
2018-02-16T12:34:04.595Z,23.03
2018-02-16T12:36:32.797Z,22.73
2018-02-16T12:39:01.784Z,23.47
2018-02-16T12:41:30.060Z,22.00
2018-02-16T12:43:58.248Z,23.57
2018-02-16T12:46:28.540Z,21.90
2018-02-16T12:48:56.812Z,21.40
2018-02-16T12:51:25.097Z,20.37
2018-02-16T12:53:53.367Z,21.80
2018-02-16T12:56:21.558Z,22.00
2018-02-16T12:58:49.844Z,19.73
2018-02-16T13:01:18.956Z,24.67
2018-02-16T13:03:47.948Z,21.87
2018-02-16T13:06:16.929Z,24.47
2018-02-16T13:08:46.008Z,21.60
2018-02-16T13:11:14.215Z,21.67
2018-02-16T13:13:43.160Z,23.60
2018-02-16T13:16:11.457Z,21.50
2018-02-16T13:18:39.725Z,21.43
2018-02-16T13:21:07.928Z,21.97
2018-02-16T13:23:36.928Z,21.80
2018-02-16T13:26:05.938Z,23.77
2018-02-16T13:28:34.128Z,22.57
2018-02-16T13:31:02.593Z,24.30
2018-02-16T13:33:30.934Z,25.07
2018-02-16T13:35:59.227Z,24.40
2018-02-16T13:38:28.256Z,20.97
2018-02-16T13:43:24.975Z,22.87
2018-02-16T13:45:54.002Z,24.50
2018-02-16T13:48:22.980Z,24.03
2018-02-16T13:50:51.172Z,23.57
2018-02-16T13:53:19.456Z,21.87
2018-02-16T13:55:47.705Z,24.40
2018-02-16T13:58:15.982Z,22.27
2018-02-16T14:00:44.188Z,23.77
2018-02-16T14:03:13.480Z,24.77
2018-02-16T14:05:41.820Z,22.73
2018-02-16T14:08:11.008Z,23.37
2018-02-16T14:10:39.973Z,24.67
2018-02-16T14:13:08.191Z,23.37
2018-02-16T14:15:37.204Z,24.73
2018-02-16T14:18:05.441Z,24.03
2018-02-16T14:20:34.408Z,23.27
2018-02-16T14:23:02.676Z,23.83
2018-02-16T14:25:30.883Z,23.20
2018-02-16T14:27:59.116Z,23.97
2018-02-16T14:30:27.386Z,23.60
2018-02-16T14:32:55.576Z,23.57
2018-02-16T14:35:23.766Z,26.97
2018-02-16T14:37:52.013Z,26.10
2018-02-16T14:40:20.207Z,24.37
2018-02-16T14:42:48.446Z,25.57
2018-02-16T14:45:16.724Z,24.67
2018-02-16T14:47:44.924Z,27.37
2018-02-16T14:50:13.457Z,25.50
2018-02-16T14:52:41.775Z,24.93
2018-02-16T14:55:10.044Z,27.27
2018-02-16T14:57:38.314Z,27.43
2018-02-16T15:00:07.404Z,27.90
2018-02-16T15:02:35.706Z,26.80
2018-02-16T15:05:03.982Z,26.57
2018-02-16T15:07:32.211Z,28.27
2018-02-16T15:10:01.172Z,27.47
2018-02-16T15:12:29.398Z,27.83
2018-02-16T15:14:57.620Z,27.70
2018-02-16T15:17:26.572Z,26.90
2018-02-16T15:19:55.510Z,28.53
2018-02-16T15:22:23.773Z,28.67
2018-02-16T15:24:52.112Z,27.87
2018-02-16T15:27:20.316Z,29.90
2018-02-16T15:29:48.584Z,27.80
2018-02-16T15:32:17.035Z,29.13
2018-02-16T15:34:46.156Z,30.13
2018-02-16T15:37:14.390Z,26.60
2018-02-16T15:39:43.044Z,28.60
2018-02-16T15:42:12.187Z,26.90
2018-02-16T15:44:41.240Z,30.20
2018-02-16T15:47:09.512Z,32.97
2018-02-16T15:49:37.749Z,31.17
2018-02-16T15:52:06.145Z,29.20
2018-02-16T15:54:34.414Z,28.90
2018-02-16T15:57:02.617Z,30.80
2018-02-16T15:59:30.901Z,28.00
2018-02-16T16:01:59.117Z,31.33
2018-02-16T16:04:28.089Z,31.77
2018-02-16T16:07:05.839Z,34.13
2018-02-16T16:09:40.532Z,34.53
2018-02-16T16:12:08.993Z,28.40
2018-02-16T16:14:37.236Z,29.00
2018-02-16T16:17:05.438Z,30.13
2018-02-16T16:19:33.763Z,30.70
2018-02-16T16:22:02.734Z,31.13
2018-02-16T16:24:31.754Z,29.90
2018-02-16T16:27:00.050Z,31.70
2018-02-16T16:29:28.296Z,30.57
2018-02-16T16:31:56.559Z,31.17
2018-02-16T16:34:25.547Z,30.50
2018-02-16T16:36:54.518Z,32.60
2018-02-16T16:39:22.728Z,29.83
2018-02-16T16:41:51.743Z,29.40
2018-02-16T16:44:19.936Z,27.73
2018-02-16T16:46:48.149Z,28.77
2018-02-16T16:49:16.399Z,30.13
2018-02-16T16:51:44.635Z,31.10
2018-02-16T16:54:13.599Z,26.73
2018-02-16T16:56:42.587Z,29.13
2018-02-16T16:59:11.656Z,28.13
2018-02-16T17:01:39.855Z,29.53
2018-02-16T17:04:08.883Z,29.63
2018-02-16T17:06:37.123Z,31.60
2018-02-16T17:09:05.332Z,31.20
2018-02-16T17:11:34.232Z,30.77
2018-02-16T17:14:02.441Z,32.57
2018-02-16T17:16:30.672Z,26.07
2018-02-16T17:18:58.960Z,31.47
2018-02-16T17:21:29.235Z,29.73
2018-02-16T17:23:57.417Z,32.63
2018-02-16T17:26:26.402Z,32.10
2018-02-16T17:28:54.627Z,29.47
2018-02-16T17:31:22.953Z,30.23
2018-02-16T17:33:51.204Z,33.60
2018-02-16T17:36:19.512Z,34.80
2018-02-16T17:38:47.706Z,35.77
2018-02-16T17:41:17.121Z,34.80
2018-02-16T17:43:45.384Z,36.17
2018-02-16T17:46:14.607Z,35.43
2018-02-16T17:48:42.860Z,35.40
2018-02-16T17:51:11.075Z,38.87
2018-02-16T17:53:39.308Z,35.43
2018-02-16T17:58:43.540Z,37.73
2018-02-16T18:01:12.525Z,36.30
2018-02-16T18:03:41.528Z,32.93
2018-02-16T18:06:09.762Z,39.07
2018-02-16T18:08:38.024Z,42.30
2018-02-16T18:11:06.968Z,35.73
2018-02-16T18:13:35.272Z,41.67
2018-02-16T18:16:03.575Z,38.03
2018-02-16T18:18:31.871Z,40.03
2018-02-16T18:21:00.104Z,38.03
2018-02-16T18:23:29.116Z,39.17
2018-02-16T18:25:57.334Z,39.53
2018-02-16T18:28:25.611Z,40.17
2018-02-16T18:30:53.812Z,41.67
2018-02-16T18:33:22.070Z,40.20
2018-02-16T18:35:51.065Z,39.03
2018-02-16T18:38:20.114Z,38.03
2018-02-16T18:40:48.731Z,38.57
2018-02-16T18:43:18.661Z,37.27
2018-02-16T18:45:47.665Z,39.93
2018-02-16T18:48:15.905Z,39.40
2018-02-16T18:50:44.145Z,39.83
2018-02-16T18:53:13.496Z,40.10
2018-02-16T18:55:42.571Z,40.03
2018-02-16T18:58:11.340Z,41.20
2018-02-16T19:00:39.693Z,43.27
2018-02-16T19:03:08.624Z,42.63
2018-02-16T19:05:37.786Z,47.03
2018-02-16T19:08:06.005Z,43.77
2018-02-16T19:10:34.291Z,37.37
2018-02-16T19:15:38.228Z,41.50
2018-02-16T19:18:07.197Z,41.20
2018-02-16T19:20:36.203Z,37.57
2018-02-16T19:23:04.821Z,41.70
2018-02-16T19:25:33.041Z,40.73
2018-02-16T19:28:01.582Z,41.37
2018-02-16T19:30:29.864Z,43.00
2018-02-16T19:32:58.185Z,45.00
2018-02-16T19:35:26.577Z,40.13
2018-02-16T19:37:54.854Z,40.83
2018-02-16T19:40:23.041Z,41.73
2018-02-16T19:42:52.000Z,39.93
2018-02-16T19:45:20.433Z,43.13
2018-02-16T19:47:48.689Z,43.70
2018-02-16T19:50:17.757Z,42.37
2018-02-16T19:52:46.061Z,46.27
2018-02-16T19:55:15.044Z,43.43
2018-02-16T19:57:43.293Z,41.97
2018-02-16T20:00:11.713Z,43.57
2018-02-16T20:02:39.945Z,45.83
2018-02-16T20:05:08.170Z,43.53
2018-02-16T20:07:37.624Z,42.70
2018-02-16T20:10:06.599Z,38.53
2018-02-16T20:12:34.816Z,40.10
2018-02-16T20:15:03.181Z,47.03
2018-02-16T20:17:31.468Z,37.23
2018-02-16T20:19:59.700Z,46.90
2018-02-16T20:22:28.241Z,44.53
2018-02-16T20:24:56.456Z,37.93
2018-02-16T20:27:25.486Z,39.87
2018-02-16T20:29:53.721Z,42.37
2018-02-16T20:32:21.924Z,45.03
2018-02-16T20:34:50.126Z,34.33
2018-02-16T20:37:18.444Z,44.87
2018-02-16T20:39:46.702Z,40.80
2018-02-16T20:42:15.733Z,35.83
2018-02-16T20:44:44.014Z,61.17
2018-02-16T20:47:12.224Z,37.87
2018-02-16T20:49:40.469Z,41.30
2018-02-16T20:52:08.798Z,31.87
2018-02-16T20:54:37.788Z,32.33
2018-02-16T20:57:06.756Z,37.00
2018-02-16T20:59:35.016Z,35.60
2018-02-16T21:02:03.228Z,46.53
2018-02-16T21:04:32.217Z,46.07
2018-02-16T21:07:01.214Z,35.97
2018-02-16T21:09:30.248Z,33.33
2018-02-16T21:11:58.438Z,48.27
2018-02-16T21:14:26.707Z,63.07
2018-02-16T21:16:54.997Z,41.13
2018-02-16T21:19:23.228Z,35.83
2018-02-16T21:21:51.436Z,34.60
2018-02-16T21:24:19.808Z,47.50
2018-02-16T21:26:48.804Z,34.77
2018-02-16T21:29:17.881Z,42.07
2018-02-16T21:31:47.052Z,60.67
2018-02-16T21:34:16.034Z,33.60
2018-02-16T21:36:44.301Z,49.80
2018-02-16T21:39:12.553Z,36.23
2018-02-16T21:41:40.775Z,55.70
2018-02-16T21:44:09.022Z,61.67
2018-02-16T21:46:37.280Z,58.50
2018-02-16T21:49:05.780Z,41.63
2018-02-16T21:51:34.093Z,40.83
2018-02-16T21:54:02.352Z,63.20
2018-02-16T21:56:30.683Z,43.60
2018-02-16T21:58:59.959Z,38.17
2018-02-16T22:01:28.148Z,33.87
2018-02-16T22:03:56.344Z,41.57
2018-02-16T22:06:24.580Z,44.90
2018-02-16T22:08:53.057Z,55.07
2018-02-16T22:11:21.444Z,43.80
2018-02-16T22:13:49.865Z,48.63
2018-02-16T22:16:19.162Z,40.73
2018-02-16T22:18:47.467Z,32.40
2018-02-16T22:21:16.101Z,31.20
2018-02-16T22:23:45.532Z,47.90
2018-02-16T22:26:14.522Z,42.07
2018-02-16T22:28:43.488Z,44.60
2018-02-16T22:31:11.758Z,54.20
2018-02-16T22:33:40.045Z,51.33
2018-02-16T22:36:08.366Z,48.37
2018-02-16T22:38:37.346Z,53.97
2018-02-16T22:41:06.324Z,41.37
2018-02-16T22:43:35.468Z,35.63
2018-02-16T22:46:03.668Z,34.77
2018-02-16T22:48:31.908Z,44.70
2018-02-16T22:51:00.137Z,43.00
2018-02-16T22:53:28.348Z,55.00
2018-02-16T22:55:56.564Z,33.30
2018-02-16T22:58:24.795Z,32.13
2018-02-16T23:00:53.008Z,30.63
2018-02-16T23:03:21.196Z,29.50
2018-02-16T23:05:50.227Z,34.03
2018-02-16T23:08:19.220Z,36.73
2018-02-16T23:10:47.428Z,29.90
2018-02-16T23:13:15.720Z,29.23
2018-02-16T23:15:44.737Z,29.70
2018-02-16T23:18:12.996Z,31.77
2018-02-16T23:20:41.540Z,35.87
2018-02-16T23:23:09.799Z,42.27
2018-02-16T23:25:38.789Z,41.83
2018-02-16T23:28:07.934Z,41.07
2018-02-16T23:30:36.124Z,39.47
2018-02-16T23:33:04.345Z,37.83
2018-02-16T23:35:32.574Z,51.63
2018-02-16T23:38:00.849Z,37.80
2018-02-16T23:40:29.064Z,36.63
2018-02-16T23:42:58.017Z,38.67
2018-02-16T23:45:26.548Z,43.13
2018-02-16T23:47:54.814Z,35.50
2018-02-16T23:50:23.901Z,43.23
2018-02-16T23:52:52.192Z,39.03
2018-02-16T23:55:20.412Z,38.37
2018-02-16T23:57:49.441Z,34.43
